Latest Weather Observations for Richmond

IDN60801

Issued at 1:03 pm EDT Thursday 11 February 2016 (issued every 30 minutes, with the page automatically refreshed every 10 minutes)

About weather observations | Map of weather stations | Latest weather observations for NSW | Other Formats
Station Details ID: 067105 Name: RICHMOND RAAF Lat: -33.60 Lon: 150.78 Height: 19.0 m
Data from the previous 72 hours. | See also: Recent months at Richmond
Date/Time
EDT
Temp
°C
App
Temp
°C
Dew
Point
Rel
Hum
%
Delta-T
°C
Wind Press
QNH
hPa
Press
MSL
hPa
Rain
since 9 am
mm
Dir
 
Spd
km/h
Gust
km/h
Spd
kts
Gust
kts
11/01:00pm 27.2 27.9 17.9 56 5.9 NNE 11 17 6 9 1014.5 1014.4 0.0
11/12:30pm 26.8 27.8 17.8 57 5.7 SSE 9 15 5 8 1014.9 1014.8 0.0
11/12:00pm 26.3 27.7 17.9 60 5.3 N 7 17 4 9 1015.2 1015.1 0.0
11/11:30am 25.9 26.9 17.8 61 5.1 NE 9 15 5 8 1015.3 1015.2 0.0
11/11:00am 25.8 27.0 18.2 63 4.8 ENE 9 15 5 8 1015.5 1015.4 0.0
11/10:52am 25.4 27.1 18.6 66 4.3 ENE 7 11 4 6 1015.4 1015.3 0.0
11/10:37am 24.6 25.7 18.1 67 4.1 SSE 9 13 5 7 1015.4 1015.3 0.0
11/10:30am 24.8 26.6 18.7 69 3.9 ESE 7 13 4 7 1015.4 1015.3 0.0
11/10:00am 23.7 25.1 17.7 69 3.7 ESE 7 11 4 6 1015.5 1015.4 0.0
11/09:30am 22.8 24.3 18.1 75 2.9 SSE 7 13 4 7 1015.6 1015.5 0.0
11/09:00am 22.0 23.9 18.6 81 2.1 SSE 6 9 3 5 1015.8 1015.7 0.0
11/08:30am 20.7 21.9 18.3 86 1.5 SSW 9 13 5 7 1015.7 1015.6 0.0
11/08:00am 19.7 21.8 18.2 91 0.9 SSW 4 9 2 5 1015.4 1015.3 0.0
11/07:30am 18.7 21.5 17.9 95 0.5 CALM 0 0 0 0 1014.9 1014.8 0.0
11/07:00am 17.2 19.6 16.9 98 0.2 CALM 0 0 0 0 1014.6 1014.5 0.0
11/06:57am 17.1 19.4 16.8 98 0.2 CALM 0 0 0 0 1014.5 1014.4 0.0
11/06:42am 17.1 19.4 16.8 98 0.2 CALM 0 0 0 0 1014.3 1014.2 0.0
11/06:30am 17.2 19.6 16.9 98 0.2 CALM 0 0 0 0 1014.1 1014.0 0.0
11/06:00am 17.1 19.3 16.5 96 0.4 CALM 0 0 0 0 1013.8 1013.7 0.0
11/05:30am 17.3 19.6 16.7 96 0.4 CALM 0 0 0 0 1013.4 1013.3 0.0
11/05:00am 17.6 20.0 17.1 97 0.3 CALM 0 0 0 0 1013.3 1013.2 0.0
11/04:30am 17.6 19.8 16.6 94 0.6 CALM 0 0 0 0 1013.1 1013.0 0.0
11/04:00am 17.7 19.9 16.6 93 0.7 CALM 0 0 0 0 1013.1 1013.0 0.0
11/03:30am 18.2 20.7 17.2 94 0.6 CALM 0 0 0 0 1013.2 1013.1 0.0
11/03:00am 18.4 20.7 16.7 90 1.0 CALM 0 6 0 3 1013.3 1013.2 0.0
11/02:30am 18.9 21.4 17.2 90 1.0 CALM 0 0 0 0 1013.4 1013.3 0.0
11/02:00am 18.7 20.3 16.9 89 1.1 WNW 4 7 2 4 1013.4 1013.3 0.0
11/01:30am 19.7 21.8 17.1 85 1.6 SW 2 6 1 3 1013.5 1013.4 0.0
11/01:00am 20.3 20.9 16.9 81 2.1 E 9 11 5 6 1013.6 1013.5 0.0
11/12:30am 20.2 21.2 16.8 81 2.1 ENE 7 9 4 5 1013.7 1013.6 0.0
11/12:00am 20.6 21.2 16.8 79 2.3 ENE 9 11 5 6 1013.9 1013.8 0.0
 
Date/Time
EDT
Temp
°C
App
Temp
°C
Dew
Point
Rel
Hum
%
Delta-T
°C
Wind Press
QNH
hPa
Press
MSL
hPa
Rain
since 9 am
mm
Dir
 
Spd
km/h
Gust
km/h
Spd
kts
Gust
kts
10/11:30pm 21.1 21.7 16.9 77 2.6 ENE 9 11 5 6 1013.9 1013.8 0.0
10/11:00pm 21.4 21.7 17.0 76 2.7 NE 11 15 6 8 1013.9 1013.8 0.0
10/10:30pm 21.7 21.8 17.5 77 2.6 NE 13 17 7 9 1013.9 1013.8 0.0
10/10:00pm 22.5 22.7 17.6 74 3.0 ENE 13 19 7 10 1013.8 1013.7 0.0
10/09:30pm 22.6 23.8 18.2 76 2.8 ENE 9 13 5 7 1013.6 1013.5 0.0
10/09:00pm 23.3 24.1 18.2 73 3.2 ENE 11 17 6 9 1013.2 1013.1 0.0
10/08:30pm 24.0 24.1 18.4 71 3.5 ENE 15 22 8 12 1012.7 1012.6 0.0
10/08:00pm 24.9 24.7 18.6 68 4.0 ENE 17 22 9 12 1012.4 1012.3 0.0
10/07:30pm 26.2 25.7 18.6 63 4.8 ENE 19 24 10 13 1011.8 1011.7 0.0
10/07:00pm 27.5 26.9 18.5 58 5.8 ENE 19 30 10 16 1011.4 1011.3 0.0
10/06:30pm 28.8 28.3 18.6 54 6.6 ENE 19 24 10 13 1011.1 1011.0 0.0
10/06:00pm 29.9 30.0 18.3 49 7.5 ENE 15 24 8 13 1010.9 1010.8 0.0
10/05:30pm 30.7 30.4 15.5 39 9.4 N 11 15 6 8 1010.8 1010.7 0.0
10/05:00pm 30.5 30.4 15.0 39 9.5 NNE 9 15 5 8 1010.9 1010.8 0.0
10/04:30pm 30.5 29.9 14.6 38 9.7 NE 11 20 6 11 1011.0 1010.9 0.0
10/04:00pm 30.2 29.5 15.5 41 9.1 ENE 13 19 7 10 1011.2 1011.1 0.0
10/03:33pm 29.9 30.4 17.4 47 7.9 E 11 19 6 10 1011.7 1011.6 0.0
10/03:30pm 29.7 29.6 16.1 43 8.5 E 11 19 6 10 1011.7 1011.6 0.0
10/03:14pm 29.7 29.6 16.1 43 8.5 NE 11 20 6 11 1011.9 1011.8 0.0
10/03:00pm 29.4 29.3 16.9 47 7.9 ENE 13 19 7 10 1012.0 1011.9 0.0
10/02:30pm 28.7 28.5 16.6 48 7.5 NE 13 24 7 13 1012.6 1012.5 0.0
10/02:00pm 29.2 30.5 19.2 54 6.5 ENE 11 22 6 12 1013.0 1012.9 0.0
10/01:30pm 28.1 27.8 17.3 52 6.8 NE 15 24 8 13 1013.5 1013.4 0.0
10/01:00pm 27.6 28.1 17.5 54 6.4 ENE 11 20 6 11 1014.1 1014.0 0.0
10/12:30pm 27.4 27.7 17.8 55 6.1 NE 13 22 7 12 1014.6 1014.5 0.0
10/12:00pm 26.2 26.0 16.7 56 5.9 NE 13 24 7 13 1015.1 1015.0 0.0
10/11:30am 26.7 27.0 18.0 59 5.5 NE 13 22 7 12 1015.5 1015.4 0.0
10/11:00am 25.8 25.8 17.2 59 5.4 NE 13 19 7 10 1015.9 1015.8 0.0
10/10:30am 25.1 25.3 16.8 60 5.1 NNE 11 20 6 11 1016.2 1016.1 0.0
10/10:00am 24.5 25.4 17.5 65 4.4 NE 9 17 5 9 1016.4 1016.3 0.0
10/09:30am 23.0 25.9 19.0 78 2.5 NNW 2 11 1 6 1016.6 1016.5 0.0
10/09:00am 21.3 22.7 17.9 81 2.1 NNE 7 9 4 5 1016.7 1016.6 0.0
10/08:30am 20.0 22.3 17.6 86 1.5 N 2 7 1 4 1016.7 1016.6 0.0
10/08:00am 18.9 21.2 17.6 92 0.8 N 2 6 1 3 1016.6 1016.5 0.0
10/07:30am 18.4 21.0 17.6 95 0.5 CALM 0 0 0 0 1016.5 1016.4 0.0
10/07:28am 18.2 20.8 17.4 95 0.5 CALM 0 0 0 0 1016.5 1016.4 0.0
10/07:16am 18.1 20.7 17.6 97 0.3 CALM 0 0 0 0 1016.5 1016.4 0.0
10/07:00am 17.6 20.1 17.3 98 0.2 CALM 0 0 0 0 1016.4 1016.3 0.0
10/06:30am 17.3 18.9 17.0 98 0.2 NNE 4 6 2 3 1016.3 1016.2 0.0
10/06:00am 17.4 18.6 16.9 97 0.3 NNE 6 6 3 3 1016.2 1016.1 0.0
10/05:30am 17.6 18.9 17.1 97 0.3 NNE 6 9 3 5 1016.1 1016.0 0.0
10/05:16am 17.8 20.3 17.3 97 0.3 CALM 0 0 0 0 1016.0 1015.9 0.0
10/05:15am 17.7 20.1 17.1 96 0.4 CALM 0 0 0 0 1016.0 1015.9 0.0
10/05:03am 18.0 20.6 17.5 97 0.3 CALM 0 0 0 0 1016.0 1015.9 0.0
10/05:00am 18.0 20.6 17.5 97 0.3 CALM 0 0 0 0 1016.0 1015.9 0.0
10/04:30am 17.9 20.3 17.1 95 0.5 CALM 0 0 0 0 1016.1 1016.0 0.0
10/04:00am 18.2 20.6 16.9 92 0.8 CALM 0 0 0 0 1016.1 1016.0 0.0
10/03:30am 18.5 20.8 16.7 89 1.1 CALM 0 0 0 0 1016.2 1016.1 0.0
10/03:00am 18.5 20.8 16.7 89 1.1 CALM 0 0 0 0 1016.6 1016.5 0.0
10/02:30am 19.1 21.6 17.2 89 1.2 CALM 0 0 0 0 1017.1 1017.0 0.0
10/02:00am 18.6 20.7 16.2 86 1.4 CALM 0 0 0 0 1017.3 1017.2 0.0
10/01:30am 19.4 22.0 17.4 88 1.2 CALM 0 0 0 0 1017.5 1017.4 0.0
10/01:00am 19.6 20.9 17.2 86 1.5 SW 6 7 3 4 1018.0 1017.9 0.0
10/12:30am 19.3 20.7 17.3 88 1.2 W 6 7 3 4 1018.3 1018.2 0.0
10/12:00am 18.9 20.0 16.7 87 1.3 WSW 6 7 3 4 1018.5 1018.4 0.0
 
Date/Time
EDT
Temp
°C
App
Temp
°C
Dew
Point
Rel
Hum
%
Delta-T
°C
Wind Press
QNH
hPa
Press
MSL
hPa
Rain
since 9 am
mm
Dir
 
Spd
km/h
Gust
km/h
Spd
kts
Gust
kts
09/11:30pm 19.2 21.3 16.2 83 1.8 CALM 0 0 0 0 1018.8 1018.7 0.0
09/11:00pm 19.7 21.8 16.3 81 2.0 CALM 0 0 0 0 1019.1 1019.0 0.0
09/10:30pm 20.4 21.8 16.4 78 2.4 SSE 4 6 2 3 1019.3 1019.2 0.0
09/10:00pm 21.1 22.2 16.5 75 2.8 E 6 7 3 4 1019.4 1019.3 0.0
09/09:30pm 21.4 22.0 15.9 71 3.3 ENE 7 9 4 5 1019.3 1019.2 0.0
09/09:00pm 21.4 21.8 15.3 68 3.6 ENE 7 9 4 5 1019.1 1019.0 0.0
09/08:30pm 22.2 21.6 14.6 62 4.5 E 11 13 6 7 1018.9 1018.8 0.0
09/08:00pm 23.0 21.9 14.3 58 5.1 E 13 20 7 11 1018.6 1018.5 0.0
09/07:30pm 24.0 22.5 15.2 58 5.3 E 17 24 9 13 1018.3 1018.2 0.0
09/07:00pm 25.1 23.5 16.0 57 5.5 E 19 26 10 14 1017.9 1017.8 0.0
09/06:30pm 26.1 24.5 16.1 54 6.1 SE 19 26 10 14 1017.7 1017.6 0.0
09/06:00pm 26.8 24.9 15.8 51 6.7 SE 20 26 11 14 1017.5 1017.4 0.0
09/05:30pm 27.2 25.9 15.9 50 6.9 SE 17 24 9 13 1017.7 1017.6 0.0
09/05:00pm 27.3 26.1 16.0 50 6.9 SE 17 24 9 13 1017.7 1017.6 0.0
09/04:30pm 27.2 25.9 15.9 50 6.9 ESE 17 32 9 17 1017.9 1017.8 0.0
09/04:00pm 27.4 25.7 15.7 48 7.2 SE 19 28 10 15 1018.2 1018.1 0.0
09/03:30pm 27.7 26.8 16.9 51 6.7 SE 17 26 9 14 1018.5 1018.4 0.0
09/03:00pm 26.5 25.2 15.8 51 6.5 ESE 17 37 9 20 1018.8 1018.7 0.0
09/02:30pm 27.3 26.4 16.9 53 6.5 SE 17 30 9 16 1019.1 1019.0 0.0
09/02:00pm 27.4 26.3 17.3 54 6.3 SE 19 30 10 16 1019.4 1019.3 0.0
09/01:30pm 26.6 25.9 17.4 57 5.8 ESE 17 26 9 14 1019.7 1019.6 0.0
09/01:00pm 26.6 26.6 17.1 56 5.9 SE 13 24 7 13 1019.9 1019.8 0.0
09/12:30pm 25.4 25.8 17.3 61 5.0 S 11 22 6 12 1020.2 1020.1 0.0
09/12:00pm 25.8 26.7 19.2 67 4.2 S 13 17 7 9 1020.6 1020.5 0.0
09/11:30am 24.8 25.5 18.0 66 4.3 SSE 11 15 6 8 1020.9 1020.8 0.0
09/11:00am 25.1 25.1 18.1 65 4.4 SSE 15 24 8 13 1020.9 1020.8 0.0
09/10:30am 25.4 25.5 19.1 68 4.0 SE 17 24 9 13 1020.9 1020.8 0.0
09/10:00am 24.6 24.4 18.5 69 3.9 SSE 17 24 9 13 1021.1 1021.0 0.0
09/09:30am 23.6 23.9 17.8 70 3.6 SSE 13 20 7 11 1021.0 1020.9 0.0
09/09:00am 21.8 23.5 18.4 81 2.1 SSW 7 11 4 6 1021.0 1020.9 0.0
09/08:30am 21.1 22.9 18.3 84 1.7 SSW 6 9 3 5 1020.9 1020.8 0.0
09/08:00am 20.8 22.7 17.6 82 2.0 SW 4 9 2 5 1020.6 1020.5 0.0
09/07:30am 19.9 22.8 18.2 90 1.1 CALM 0 0 0 0 1020.2 1020.1 0.0
09/07:00am 19.1 21.1 17.8 92 0.8 SW 4 7 2 4 1019.8 1019.7 0.0
09/06:30am 18.6 21.2 17.4 93 0.7 CALM 0 0 0 0 1019.5 1019.4 0.0
09/06:00am 18.9 20.3 17.4 91 0.9 NNW 6 7 3 4 1019.2 1019.1 0.0
09/05:30am 19.9 21.4 17.7 87 1.4 SW 6 7 3 4 1018.9 1018.8 0.0
09/05:00am 19.8 21.2 17.8 88 1.2 SW 7 9 4 5 1018.8 1018.7 0.0
09/04:30am 19.8 21.2 17.9 89 1.2 SSW 7 9 4 5 1018.7 1018.6 0.0
09/04:00am 19.5 20.9 17.8 90 1.0 SW 7 9 4 5 1018.7 1018.6 0.0
09/03:30am 19.9 21.1 18.2 90 1.1 SW 9 13 5 7 1018.9 1018.8 0.0
09/03:00am 19.8 21.4 18.3 91 0.9 SSW 7 9 4 5 1018.9 1018.8 0.0
09/02:30am 20.0 21.9 18.5 91 0.9 SW 6 7 3 4 1019.1 1019.0 0.0
09/02:00am 19.6 21.3 18.4 93 0.7 W 7 9 4 5 1019.2 1019.1 0.0
09/01:30am 19.4 20.8 17.9 91 0.9 SW 7 9 4 5 1019.4 1019.3 0.0
09/01:00am 19.8 21.3 18.1 90 1.0 SW 7 9 4 5 1019.6 1019.5 0.0
09/12:30am 19.7 21.1 17.7 88 1.2 WSW 7 9 4 5 1019.7 1019.6 0.0
09/12:00am 20.0 20.9 17.6 86 1.5 WSW 9 11 5 6 1019.8 1019.7 0.0
 
Date/Time
EDT
Temp
°C
App
Temp
°C
Dew
Point
Rel
Hum
%
Delta-T
°C
Wind Press
QNH
hPa
Press
MSL
hPa
Rain
since 9 am
mm
Dir
 
Spd
km/h
Gust
km/h
Spd
kts
Gust
kts
08/11:30pm 20.2 21.4 17.4 84 1.7 SSW 7 9 4 5 1019.8 1019.7 0.0
08/11:00pm 19.8 21.2 17.8 88 1.2 S 7 7 4 4 1019.7 1019.6 0.0
08/10:30pm 19.8 20.9 17.0 84 1.7 S 7 9 4 5 1019.6 1019.5 0.0
08/10:00pm 20.9 22.1 16.9 78 2.4 SSE 6 7 3 4 1019.4 1019.3 0.0
08/09:30pm 21.9 23.2 17.5 76 2.7 ENE 7 9 4 5 1018.9 1018.8 0.0
08/09:00pm 22.6 23.9 17.5 73 3.2 NE 7 7 4 4 1018.5 1018.4 0.0
08/08:30pm 22.9 23.3 16.2 66 4.1 ENE 9 11 5 6 1018.1 1018.0 0.0
08/08:00pm 24.5 23.8 15.4 57 5.5 E 13 19 7 10 1017.8 1017.7 0.0
08/07:30pm 26.1 24.3 15.5 52 6.4 ESE 19 24 10 13 1017.4 1017.3 0.0
08/07:00pm 27.2 25.7 16.2 51 6.8 SE 19 24 10 13 1016.9 1016.8 0.0
08/06:30pm 27.9 26.2 16.2 49 7.2 SE 20 28 11 15 1016.6 1016.5 0.0
08/06:00pm 28.8 26.9 15.7 45 8.1 SE 20 26 11 14 1016.3 1016.2 0.0
08/05:30pm 29.4 27.2 14.4 40 9.1 ESE 19 26 10 14 1016.3 1016.2 0.0
08/05:00pm 30.0 27.9 13.7 37 9.8 ESE 17 24 9 13 1016.4 1016.3 0.0
08/04:30pm 29.9 28.6 13.6 36 9.8 SSE 13 17 7 9 1016.6 1016.5 0.0
08/04:00pm 29.5 29.3 15.6 43 8.6 E 11 20 6 11 1016.7 1016.6 0.0
08/03:30pm 29.5 29.8 17.0 47 7.9 ESE 11 19 6 10 1016.8 1016.7 0.0
08/03:00pm 28.8 29.9 16.7 48 7.6 SW 6 11 3 6 1017.0 1016.9 0.0
08/02:30pm 28.7 29.6 17.6 51 7.0 NNW 9 15 5 8 1017.5 1017.4 0.0
08/02:00pm 27.8 28.8 16.4 50 7.1 S 6 13 3 7 1017.7 1017.6 0.0
08/01:30pm 27.2 27.7 17.4 55 6.2 S 11 20 6 11 1018.1 1018.0 0.0

Other Formats:

Comma delimited format used in spreadsheet applications
http://www.bom.gov.au/fwo/IDN60801/IDN60801.95753.axf

JavaScript Object Notation format (JSON) in row-major order
http://www.bom.gov.au/fwo/IDN60801/IDN60801.95753.json